Time;durP1;ratioP1;P1;durP2;ratioP2;P2;SDS_P1;SDS_P2;PMS_P1;PMS_P2;Temp;Humidity;BMP_temperature;BMP_pressure;BME280_temperature;BME280_humidity;BME280_pressure;Samples;Min_cycle;Max_cycle;Signal;HPM_P1;HPM_P2
2023/08/10 00:01:22;;;;;;;2.40;0.88;;;;;;;;;;10437207;28;20506;-84
2023/08/10 00:06:27;;;;;;;2.35;1.20;;;;;;;;;;10438462;28;20516;-84
2023/08/10 00:11:30;;;;;;;1.02;0.82;;;;;;;;;;10437857;28;20088;-84
2023/08/10 00:16:34;;;;;;;1.95;1.20;;;;;;;;;;10437153;28;20112;-83
2023/08/10 00:21:38;;;;;;;1.63;1.20;;;;;;;;;;10436740;28;20037;-84
2023/08/10 00:26:42;;;;;;;0.88;0.85;;;;;;;;;;10454130;28;20132;-85
2023/08/10 00:31:45;;;;;;;1.05;0.93;;;;;;;;;;10438914;28;20045;-84
2023/08/10 00:36:50;;;;;;;1.20;0.88;;;;;;;;;;10436155;28;20127;-83
2023/08/10 00:41:54;;;;;;;1.30;1.10;;;;;;;;;;10434628;28;20037;-84
2023/08/10 00:46:57;;;;;;;2.97;1.00;;;;;;;;;;10435104;28;20051;-84
2023/08/10 00:52:03;;;;;;;1.67;0.90;;;;;;;;;;10437944;28;20049;-84
2023/08/10 00:57:08;;;;;;;1.17;0.90;;;;;;;;;;10436470;28;20527;-84
2023/08/10 01:02:11;;;;;;;2.60;1.10;;;;;;;;;;10436412;28;20064;-84
2023/08/10 01:07:23;;;;;;;1.83;0.98;;;;;;;;;;10441005;28;20525;-84
2023/08/10 01:12:36;;;;;;;2.60;0.93;;;;;;;;;;10459363;28;20634;-84
2023/08/10 01:17:41;;;;;;;1.73;0.80;;;;;;;;;;10443362;28;20114;-83
2023/08/10 01:22:56;;;;;;;1.52;0.70;;;;;;;;;;10442984;28;20608;-83
2023/08/10 01:28:01;;;;;;;1.45;0.90;;;;;;;;;;10436237;28;20148;-84
2023/08/10 01:33:05;;;;;;;1.13;1.03;;;;;;;;;;10442356;28;20070;-84
2023/08/10 01:38:09;;;;;;;1.23;0.98;;;;;;;;;;10442977;28;20052;-84
2023/08/10 01:43:13;;;;;;;1.77;0.95;;;;;;;;;;10442798;28;20127;-83
2023/08/10 01:48:21;;;;;;;2.65;0.80;;;;;;;;;;10442889;28;20120;-84
2023/08/10 01:53:28;;;;;;;1.63;1.10;;;;;;;;;;10428247;28;20129;-84
2023/08/10 01:58:33;;;;;;;1.20;0.80;;;;;;;;;;10437638;28;20135;-83
2023/08/10 02:03:36;;;;;;;1.35;0.85;;;;;;;;;;10438935;28;20041;-83
2023/08/10 02:19:57;;;;;;;0.70;0.70;;;;;;;;;;11405368;23;20050;-91
2023/08/10 02:25:03;;;;;;;1.17;0.77;;;;;;;;;;10273384;28;20520;-91
2023/08/10 02:30:13;;;;;;;1.23;0.70;;;;;;;;;;10295891;28;20047;-90
2023/08/10 02:35:25;;;;;;;1.65;0.70;;;;;;;;;;10288436;28;20050;-89
2023/08/10 02:40:30;;;;;;;4.38;0.90;;;;;;;;;;10291240;28;20043;-90
2023/08/10 02:45:36;;;;;;;1.70;0.70;;;;;;;;;;10289170;28;20517;-90
2023/08/10 02:50:41;;;;;;;0.80;0.70;;;;;;;;;;10295982;28;20061;-90
2023/08/10 02:55:46;;;;;;;0.90;0.70;;;;;;;;;;10279764;28;20069;-91
2023/08/10 03:00:50;;;;;;;1.67;0.80;;;;;;;;;;10321724;28;20244;-90
2023/08/10 03:05:56;;;;;;;0.68;0.68;;;;;;;;;;10298031;28;20441;-91
2023/08/10 03:11:00;;;;;;;1.43;0.80;;;;;;;;;;10281767;28;20723;-91
2023/08/10 03:16:04;;;;;;;0.90;0.70;;;;;;;;;;10273764;28;20516;-94
2023/08/10 03:21:13;;;;;;;0.73;0.68;;;;;;;;;;10274304;28;20043;-90
2023/08/10 03:26:18;;;;;;;1.98;0.70;;;;;;;;;;10278658;28;20042;-90
2023/08/10 03:31:25;;;;;;;0.95;0.73;;;;;;;;;;10296951;28;20074;-90
2023/08/10 03:36:33;;;;;;;0.50;0.50;;;;;;;;;;10280692;28;20057;-94
2023/08/10 03:41:43;;;;;;;0.90;0.60;;;;;;;;;;10266221;28;20576;-90
2023/08/10 03:46:53;;;;;;;1.30;0.90;;;;;;;;;;10306416;28;20046;-90
2023/08/10 03:52:11;;;;;;;0.80;0.70;;;;;;;;;;10285092;28;20042;-91
2023/08/10 03:57:20;;;;;;;1.05;0.60;;;;;;;;;;10283213;28;20427;-93
2023/08/10 04:02:32;;;;;;;1.48;0.80;;;;;;;;;;10288883;28;20121;-90
2023/08/10 04:07:55;;;;;;;2.35;0.60;;;;;;;;;;10265420;28;20053;-94
2023/08/10 04:13:00;;;;;;;0.57;0.57;;;;;;;;;;10268994;28;20042;-89
2023/08/10 04:18:05;;;;;;;0.80;0.75;;;;;;;;;;10271912;28;20055;-90
2023/08/10 04:23:23;;;;;;;0.75;0.75;;;;;;;;;;10296013;28;20045;-90
2023/08/10 04:28:47;;;;;;;1.00;0.68;;;;;;;;;;10289435;28;20035;-90
2023/08/10 04:34:40;;;;;;;0.98;0.80;;;;;;;;;;10265122;28;20046;-89
2023/08/10 04:52:15;;;;;;;1.75;0.80;;;;;;;;;;10176647;29;20047;-90
2023/08/10 04:57:28;;;;;;;1.33;0.68;;;;;;;;;;10192971;29;20043;-89
2023/08/10 05:02:36;;;;;;;0.80;0.80;;;;;;;;;;10199399;29;20051;-90
2023/08/10 05:07:44;;;;;;;0.77;0.70;;;;;;;;;;10189580;29;20043;-89
2023/08/10 05:12:51;;;;;;;0.95;0.88;;;;;;;;;;10201959;29;20103;-89
2023/08/10 05:18:02;;;;;;;2.83;0.98;;;;;;;;;;10195019;29;20042;-91
2023/08/10 05:23:13;;;;;;;0.80;0.80;;;;;;;;;;10263867;28;20035;-90
2023/08/10 05:28:18;;;;;;;1.05;0.60;;;;;;;;;;10297429;28;20126;-90
2023/08/10 05:33:25;;;;;;;1.05;0.75;;;;;;;;;;10289923;28;20038;-90
2023/08/10 05:38:28;;;;;;;0.60;0.60;;;;;;;;;;10313495;28;20163;-92
2023/08/10 05:43:38;;;;;;;0.75;0.60;;;;;;;;;;10288161;28;20105;-89
2023/08/10 05:48:44;;;;;;;1.00;0.80;;;;;;;;;;10296042;28;20042;-90
2023/08/10 05:53:54;;;;;;;1.52;0.90;;;;;;;;;;10288982;28;20097;-91
2023/08/10 05:59:06;;;;;;;0.63;0.60;;;;;;;;;;10288669;28;20559;-89
2023/08/10 06:04:14;;;;;;;3.83;0.80;;;;;;;;;;10260395;28;20049;-91
2023/08/10 06:09:26;;;;;;;;;;;;;;;;;;10282334;28;20457;-89
2023/08/10 06:14:56;;;;;;;1.85;0.90;;;;;;;;;;10286077;28;19926;-89
2023/08/10 06:20:23;;;;;;;1.08;0.80;;;;;;;;;;10278344;28;20094;-89
2023/08/10 06:25:30;;;;;;;1.77;0.90;;;;;;;;;;10275952;28;20038;-89
2023/08/10 06:30:45;;;;;;;2.63;1.15;;;;;;;;;;10278925;28;20049;-89
2023/08/10 06:35:58;;;;;;;1.10;0.65;;;;;;;;;;10272753;28;20095;-89
2023/08/10 06:41:02;;;;;;;1.63;1.00;;;;;;;;;;10298184;28;20138;-89
2023/08/10 06:46:16;;;;;;;1.05;0.80;;;;;;;;;;10299509;28;20078;-91
2023/08/10 06:51:23;;;;;;;3.10;1.02;;;;;;;;;;10293645;28;20049;-89
2023/08/10 06:56:50;;;;;;;1.13;0.85;;;;;;;;;;10280818;28;20404;-90
2023/08/10 07:01:58;;;;;;;1.70;0.80;;;;;;;;;;10288667;28;20109;-89
2023/08/10 07:14:03;;;;;;;1.42;0.80;;;;;;;;;;10164512;29;20036;-89
2023/08/10 07:19:32;;;;;;;1.50;1.00;;;;;;;;;;10160778;29;20044;-90
2023/08/10 07:24:39;;;;;;;2.03;1.15;;;;;;;;;;10260007;28;20055;-91
2023/08/10 07:29:47;;;;;;;3.97;1.45;;;;;;;;;;10285294;28;20050;-90
2023/08/10 07:35:36;;;;;;;3.53;1.70;;;;;;;;;;10279982;28;20238;-89
2023/08/10 07:42:04;;;;;;;;;;;;;;;;;;;;;
2023/08/10 07:47:41;;;;;;;2.13;1.23;;;;;;;;;;10338367;28;20172;-89
2023/08/10 07:53:23;;;;;;;5.20;1.20;;;;;;;;;;10326259;28;20486;-90
2023/08/10 08:04:45;;;;;;;;;;;;;;;;;;;;;
2023/08/10 08:10:06;;;;;;;2.55;0.93;;;;;;;;;;10307030;28;20117;-89
2023/08/10 08:20:51;;;;;;;3.50;1.00;;;;;;;;;;10230009;28;20141;-89
2023/08/10 08:26:26;;;;;;;4.28;1.65;;;;;;;;;;10275830;28;20456;-89
2023/08/10 08:31:37;;;;;;;3.40;1.50;;;;;;;;;;10264788;28;20043;-90
2023/08/10 08:43:18;;;;;;;3.08;1.20;;;;;;;;;;10250912;28;20722;-89
2023/08/10 08:48:30;;;;;;;3.50;2.00;;;;;;;;;;10277569;28;20061;-90
2023/08/10 09:00:25;;;;;;;2.38;1.40;;;;;;;;;;10274514;28;20051;-90
2023/08/10 09:06:06;;;;;;;1.73;0.90;;;;;;;;;;10277604;28;20559;-91
2023/08/10 09:11:46;;;;;;;1.42;0.77;;;;;;;;;;10272246;28;20102;-89
2023/08/10 09:17:21;;;;;;;1.73;0.90;;;;;;;;;;10266706;28;20098;-89
2023/08/10 09:22:56;;;;;;;2.05;1.00;;;;;;;;;;10281869;28;20074;-91
2023/08/10 09:28:09;;;;;;;1.17;0.83;;;;;;;;;;10283791;28;20046;-89
2023/08/10 09:33:59;;;;;;;1.90;1.30;;;;;;;;;;10293211;28;20058;-89
2023/08/10 09:40:32;;;;;;;1.90;0.75;;;;;;;;;;10157995;29;20052;-89
2023/08/10 09:45:49;;;;;;;1.25;0.82;;;;;;;;;;10150622;29;20560;-89
2023/08/10 09:51:45;;;;;;;1.95;1.00;;;;;;;;;;10205399;28;20047;-89
2023/08/10 09:57:16;;;;;;;3.35;1.33;;;;;;;;;;10279738;28;20038;-89
2023/08/10 10:02:21;;;;;;;1.40;1.00;;;;;;;;;;10276490;28;20122;-90
2023/08/10 10:07:30;;;;;;;2.33;1.20;;;;;;;;;;10298077;28;20055;-91
2023/08/10 10:13:09;;;;;;;1.77;0.90;;;;;;;;;;10271155;28;20137;-90
2023/08/10 10:18:56;;;;;;;3.30;1.20;;;;;;;;;;10286978;28;20058;-88
2023/08/10 10:24:12;;;;;;;0.70;0.70;;;;;;;;;;10281317;28;20039;-86
2023/08/10 10:29:23;;;;;;;2.10;0.80;;;;;;;;;;10275316;28;20050;-86
2023/08/10 10:34:42;;;;;;;2.35;0.82;;;;;;;;;;10273632;28;20070;-86
2023/08/10 10:40:34;;;;;;;2.42;0.88;;;;;;;;;;10273968;28;20070;-87
2023/08/10 10:45:48;;;;;;;1.75;0.77;;;;;;;;;;10278762;28;20588;-86
2023/08/10 10:51:21;;;;;;;1.20;0.70;;;;;;;;;;10271951;28;20046;-86
2023/08/10 10:56:37;;;;;;;1.27;0.60;;;;;;;;;;10265500;28;20050;-86
2023/08/10 11:02:05;;;;;;;1.20;0.52;;;;;;;;;;10289098;28;20098;-87
2023/08/10 11:07:42;;;;;;;2.92;0.55;;;;;;;;;;10268230;28;20035;-86
2023/08/10 11:12:53;;;;;;;0.70;0.57;;;;;;;;;;10270260;28;20746;-86
2023/08/10 11:18:09;;;;;;;;;;;;;;;;;;10267166;28;20065;-86
2023/08/10 11:23:13;;;;;;;1.95;0.70;;;;;;;;;;10274223;28;19922;-86
2023/08/10 11:28:29;;;;;;;1.05;0.40;;;;;;;;;;10282122;28;20050;-85
2023/08/10 11:33:58;;;;;;;;;;;;;;;;;;;;;
2023/08/10 11:39:16;;;;;;;0.55;0.50;;;;;;;;;;10260857;28;20050;-86
2023/08/10 11:44:37;;;;;;;0.60;0.50;;;;;;;;;;10266142;28;20062;-86
2023/08/10 11:49:50;;;;;;;0.40;0.38;;;;;;;;;;10268010;28;20050;-86
2023/08/10 11:54:55;;;;;;;0.68;0.40;;;;;;;;;;10283800;28;20043;-86
2023/08/10 11:59:59;;;;;;;0.82;0.57;;;;;;;;;;10270803;28;20043;-87
2023/08/10 12:05:17;;;;;;;0.65;0.50;;;;;;;;;;10272930;28;20589;-86
2023/08/10 12:10:21;;;;;;;0.40;0.40;;;;;;;;;;10271368;28;20062;-86
2023/08/10 12:15:25;;;;;;;0.60;0.30;;;;;;;;;;10269345;28;20067;-86
2023/08/10 12:20:35;;;;;;;1.20;0.57;;;;;;;;;;10271452;28;20046;-86
2023/08/10 12:25:39;;;;;;;0.55;0.50;;;;;;;;;;10266090;28;20054;-86
2023/08/10 12:30:49;;;;;;;0.50;0.47;;;;;;;;;;10267163;28;20042;-87
2023/08/10 12:35:55;;;;;;;0.60;0.38;;;;;;;;;;10279547;28;20044;-87
2023/08/10 12:41:30;;;;;;;0.77;0.40;;;;;;;;;;10246157;28;20074;-87
2023/08/10 12:46:58;;;;;;;0.63;0.52;;;;;;;;;;10240984;28;20051;-86
2023/08/10 12:52:03;;;;;;;0.60;0.45;;;;;;;;;;10280490;28;20047;-86
2023/08/10 12:57:12;;;;;;;0.93;0.40;;;;;;;;;;10271942;28;20035;-86
2023/08/10 13:02:17;;;;;;;0.70;0.40;;;;;;;;;;10282383;28;20074;-85
2023/08/10 13:07:59;;;;;;;0.63;0.50;;;;;;;;;;10271909;28;20129;-86
2023/08/10 13:13:10;;;;;;;0.65;0.57;;;;;;;;;;10311376;28;20677;-86
2023/08/10 13:18:38;;;;;;;1.20;0.70;;;;;;;;;;10300428;28;20070;-87
2023/08/10 13:23:46;;;;;;;1.00;0.70;;;;;;;;;;10302031;28;20475;-86
2023/08/10 13:29:15;;;;;;;1.13;0.70;;;;;;;;;;10310347;28;20051;-86
2023/08/10 13:34:19;;;;;;;0.77;0.70;;;;;;;;;;10300195;28;20065;-86
2023/08/10 13:39:28;;;;;;;1.05;0.73;;;;;;;;;;10281342;28;20038;-86
2023/08/10 13:44:35;;;;;;;1.05;0.63;;;;;;;;;;10315683;28;20073;-86
2023/08/10 13:49:39;;;;;;;0.60;0.60;;;;;;;;;;10316452;28;20207;-86
2023/08/10 13:55:14;;;;;;;0.65;0.60;;;;;;;;;;10290036;28;20046;-87
2023/08/10 14:00:31;;;;;;;1.00;0.63;;;;;;;;;;10317069;28;20050;-86
2023/08/10 14:05:40;;;;;;;1.60;0.73;;;;;;;;;;10316055;28;20038;-88
2023/08/10 14:10:54;;;;;;;0.57;0.50;;;;;;;;;;10308794;28;20050;-86
2023/08/10 14:16:00;;;;;;;0.63;0.63;;;;;;;;;;10282632;28;20052;-86
2023/08/10 14:21:09;;;;;;;0.70;0.70;;;;;;;;;;10306100;28;20050;-86
2023/08/10 14:26:14;;;;;;;0.70;0.60;;;;;;;;;;10313193;28;20184;-87
2023/08/10 14:31:18;;;;;;;;;;;;;;;;;;10312151;28;20466;-87
2023/08/10 14:36:22;;;;;;;1.00;0.70;;;;;;;;;;10303514;28;20394;-87
2023/08/10 14:41:28;;;;;;;1.20;0.70;;;;;;;;;;10294712;28;20412;-87
2023/08/10 14:46:39;;;;;;;0.60;0.50;;;;;;;;;;10272911;28;20042;-86
2023/08/10 14:51:44;;;;;;;1.50;0.70;;;;;;;;;;10284530;28;20045;-90
2023/08/10 14:56:58;;;;;;;;;;;;;;;;;;10301835;28;20520;-89
2023/08/10 15:02:07;;;;;;;0.82;0.80;;;;;;;;;;10295250;28;19926;-89
2023/08/10 15:07:12;;;;;;;0.63;0.52;;;;;;;;;;10290986;28;20089;-88
2023/08/10 15:12:35;;;;;;;0.73;0.73;;;;;;;;;;10305533;28;20054;-88
2023/08/10 15:17:39;;;;;;;0.93;0.70;;;;;;;;;;10295280;28;20663;-91
2023/08/10 15:22:43;;;;;;;0.65;0.65;;;;;;;;;;10313917;28;20049;-88
2023/08/10 15:27:48;;;;;;;0.30;0.30;;;;;;;;;;10305358;28;20516;-88
2023/08/10 15:32:54;;;;;;;0.70;0.60;;;;;;;;;;10307663;28;20043;-90
2023/08/10 15:37:59;;;;;;;2.00;0.63;;;;;;;;;;10294861;28;20065;-88
2023/08/10 15:43:05;;;;;;;0.63;0.57;;;;;;;;;;10311227;28;20491;-92
2023/08/10 15:48:09;;;;;;;0.47;0.47;;;;;;;;;;10313658;28;20042;-89
2023/08/10 15:53:13;;;;;;;1.77;0.80;;;;;;;;;;10309869;28;20707;-88
2023/08/10 15:58:18;;;;;;;2.67;0.77;;;;;;;;;;10317292;28;20074;-88
2023/08/10 16:03:21;;;;;;;0.90;0.80;;;;;;;;;;10311779;28;20054;-88
2023/08/10 16:08:25;;;;;;;0.80;0.73;;;;;;;;;;10297359;28;20046;-88
2023/08/10 16:13:30;;;;;;;0.75;0.57;;;;;;;;;;10300716;28;20046;-89
2023/08/10 16:18:34;;;;;;;1.20;1.00;;;;;;;;;;10309616;28;20052;-88
2023/08/10 16:23:38;;;;;;;1.13;0.85;;;;;;;;;;10300023;28;20046;-88
2023/08/10 16:28:43;;;;;;;1.27;0.90;;;;;;;;;;10316653;28;20043;-88
2023/08/10 16:33:46;;;;;;;0.63;0.63;;;;;;;;;;10318516;28;20055;-88
2023/08/10 16:38:53;;;;;;;1.10;0.95;;;;;;;;;;10301951;28;20050;-89
2023/08/10 16:44:00;;;;;;;0.90;0.80;;;;;;;;;;10323549;28;20094;-88
2023/08/10 16:49:05;;;;;;;1.63;1.00;;;;;;;;;;10306837;28;20042;-87
2023/08/10 16:54:10;;;;;;;0.80;0.75;;;;;;;;;;10324843;28;20121;-89
2023/08/10 16:59:15;;;;;;;1.10;0.93;;;;;;;;;;10323893;28;20039;-89
2023/08/10 17:04:18;;;;;;;1.27;1.10;;;;;;;;;;10305944;28;20548;-89
2023/08/10 17:09:22;;;;;;;1.92;0.98;;;;;;;;;;10323604;28;20793;-89
2023/08/10 17:14:27;;;;;;;2.05;1.30;;;;;;;;;;10317423;28;20195;-88
2023/08/10 17:19:31;;;;;;;1.17;0.95;;;;;;;;;;10307545;28;20137;-88
2023/08/10 17:24:35;;;;;;;0.93;0.88;;;;;;;;;;10307719;28;20045;-88
2023/08/10 17:29:40;;;;;;;1.17;0.70;;;;;;;;;;10306896;28;20047;-89
2023/08/10 17:34:44;;;;;;;1.30;1.00;;;;;;;;;;10303511;28;20054;-89
2023/08/10 17:39:47;;;;;;;1.10;0.95;;;;;;;;;;10324793;28;20065;-89
2023/08/10 17:44:55;;;;;;;1.30;1.15;;;;;;;;;;10322442;28;20118;-87
2023/08/10 17:49:59;;;;;;;1.10;1.00;;;;;;;;;;10337497;23;20403;-84
2023/08/10 17:55:03;;;;;;;1.67;1.30;;;;;;;;;;10332163;28;20125;-84
2023/08/10 18:00:12;;;;;;;2.00;0.90;;;;;;;;;;10354670;28;20046;-82
2023/08/10 18:05:16;;;;;;;1.58;1.05;;;;;;;;;;10357413;28;20399;-82
2023/08/10 18:10:19;;;;;;;1.13;0.93;;;;;;;;;;10344848;28;20077;-82
2023/08/10 18:15:24;;;;;;;1.15;0.85;;;;;;;;;;10349280;28;20511;-82
2023/08/10 18:20:28;;;;;;;1.10;0.93;;;;;;;;;;10328611;28;20092;-82
2023/08/10 18:25:31;;;;;;;1.02;0.93;;;;;;;;;;10345424;28;20073;-82
2023/08/10 18:30:36;;;;;;;2.25;1.08;;;;;;;;;;10325791;28;20077;-84
2023/08/10 18:35:39;;;;;;;3.08;0.82;;;;;;;;;;10347583;28;20125;-84
2023/08/10 18:40:43;;;;;;;1.52;1.08;;;;;;;;;;10354087;28;20440;-84
2023/08/10 18:45:47;;;;;;;1.75;1.30;;;;;;;;;;10333221;28;20038;-84
2023/08/10 18:50:57;;;;;;;2.78;1.10;;;;;;;;;;10334665;28;20100;-84
2023/08/10 18:56:00;;;;;;;1.45;1.20;;;;;;;;;;10342814;28;20615;-84
2023/08/10 19:01:05;;;;;;;1.70;1.20;;;;;;;;;;10323041;28;20048;-84
2023/08/10 19:06:08;;;;;;;1.35;1.13;;;;;;;;;;10336984;28;20038;-83
2023/08/10 19:11:12;;;;;;;3.65;1.75;;;;;;;;;;10343362;28;20077;-85
2023/08/10 19:16:17;;;;;;;2.55;1.42;;;;;;;;;;10317770;28;20046;-84
2023/08/10 19:21:20;;;;;;;3.13;1.30;;;;;;;;;;10329887;28;20056;-83
2023/08/10 19:26:23;;;;;;;1.80;1.52;;;;;;;;;;10357064;28;20069;-84
2023/08/10 19:31:28;;;;;;;1.80;1.40;;;;;;;;;;10348406;28;20066;-84
2023/08/10 19:36:31;;;;;;;1.95;1.45;;;;;;;;;;10331135;28;20087;-84
2023/08/10 19:41:35;;;;;;;2.90;1.70;;;;;;;;;;10333784;28;20065;-84
2023/08/10 19:46:39;;;;;;;2.65;1.33;;;;;;;;;;10330123;28;20053;-84
2023/08/10 19:51:43;;;;;;;3.40;1.38;;;;;;;;;;10326393;28;20129;-84
2023/08/10 19:56:46;;;;;;;3.05;1.65;;;;;;;;;;10331400;28;20529;-84
2023/08/10 20:01:51;;;;;;;1.73;1.52;;;;;;;;;;10327071;28;20046;-84
2023/08/10 20:06:55;;;;;;;1.75;1.42;;;;;;;;;;10343325;28;20048;-84
2023/08/10 20:11:58;;;;;;;2.63;1.42;;;;;;;;;;10361273;28;20041;-83
2023/08/10 20:17:03;;;;;;;2.70;1.50;;;;;;;;;;10351501;28;20058;-84
2023/08/10 20:22:08;;;;;;;;;;;;;;;;;;10350510;28;20443;-84
2023/08/10 20:27:12;;;;;;;3.20;1.50;;;;;;;;;;10348400;28;20713;-83
2023/08/10 20:32:18;;;;;;;2.03;1.35;;;;;;;;;;10338722;28;20081;-84
2023/08/10 20:37:22;;;;;;;3.13;1.77;;;;;;;;;;10338643;28;20132;-84
2023/08/10 20:42:25;;;;;;;2.25;1.33;;;;;;;;;;10344534;28;20080;-84
2023/08/10 20:47:30;;;;;;;2.08;1.52;;;;;;;;;;10356871;28;20066;-84
2023/08/10 20:52:33;;;;;;;1.38;1.27;;;;;;;;;;10366130;28;20124;-84
2023/08/10 20:57:36;;;;;;;3.13;1.70;;;;;;;;;;10342729;28;20073;-84
2023/08/10 21:02:41;;;;;;;2.67;1.38;;;;;;;;;;10339812;28;20069;-84
2023/08/10 21:07:45;;;;;;;2.30;1.45;;;;;;;;;;10327493;28;20046;-84
2023/08/10 21:12:48;;;;;;;4.75;1.30;;;;;;;;;;10337532;28;20134;-84
2023/08/10 21:17:53;;;;;;;4.20;1.50;;;;;;;;;;10352284;28;20106;-84
2023/08/10 21:22:56;;;;;;;4.55;1.30;;;;;;;;;;10368194;28;20042;-85
2023/08/10 21:27:59;;;;;;;5.18;1.60;;;;;;;;;;10353065;28;20523;-84
2023/08/10 21:33:04;;;;;;;3.22;1.30;;;;;;;;;;10366038;28;20230;-84
2023/08/10 21:38:08;;;;;;;2.13;1.10;;;;;;;;;;10328722;28;20049;-84
2023/08/10 21:43:11;;;;;;;3.67;1.60;;;;;;;;;;10349835;28;20105;-84
2023/08/10 21:48:15;;;;;;;2.38;1.08;;;;;;;;;;10367434;28;20110;-83
2023/08/10 21:53:19;;;;;;;2.25;1.65;;;;;;;;;;10344170;28;20557;-85
2023/08/10 21:58:22;;;;;;;2.13;1.40;;;;;;;;;;10347826;28;20044;-84
2023/08/10 22:03:27;;;;;;;3.25;1.80;;;;;;;;;;10345972;28;20050;-84
2023/08/10 22:08:30;;;;;;;5.80;1.50;;;;;;;;;;10342007;28;20112;-85
2023/08/10 22:13:34;;;;;;;2.42;1.35;;;;;;;;;;10341390;28;20479;-83
2023/08/10 22:18:38;;;;;;;2.28;1.55;;;;;;;;;;10345452;28;20121;-84
2023/08/10 22:23:42;;;;;;;2.88;1.20;;;;;;;;;;10349988;28;20064;-84
2023/08/10 22:28:45;;;;;;;1.58;1.05;;;;;;;;;;10354062;28;20458;-84
2023/08/10 22:33:50;;;;;;;3.13;0.98;;;;;;;;;;10358555;28;20070;-84
2023/08/10 22:38:53;;;;;;;2.05;1.30;;;;;;;;;;10327313;28;20132;-84
2023/08/10 22:43:56;;;;;;;2.55;1.45;;;;;;;;;;10361802;28;20133;-85
2023/08/10 22:49:01;;;;;;;3.60;1.23;;;;;;;;;;10332619;28;20133;-85
2023/08/10 22:54:05;;;;;;;2.00;1.40;;;;;;;;;;10333498;28;20603;-85
2023/08/10 22:59:09;;;;;;;2.03;1.15;;;;;;;;;;10352164;28;20312;-83
2023/08/10 23:04:13;;;;;;;3.80;1.38;;;;;;;;;;10341392;28;20570;-85
2023/08/10 23:09:17;;;;;;;5.20;1.70;;;;;;;;;;10355795;28;20060;-84
2023/08/10 23:14:20;;;;;;;7.20;1.33;;;;;;;;;;10333940;28;20061;-82
2023/08/10 23:19:25;;;;;;;2.88;1.33;;;;;;;;;;10342369;28;20129;-85
2023/08/10 23:24:28;;;;;;;3.22;1.50;;;;;;;;;;10344630;28;20744;-84
2023/08/10 23:29:31;;;;;;;3.55;1.38;;;;;;;;;;10327624;28;20073;-84
2023/08/10 23:34:38;;;;;;;3.20;1.45;;;;;;;;;;10338093;28;20133;-84
2023/08/10 23:39:41;;;;;;;2.20;1.15;;;;;;;;;;10361373;28;20483;-84
2023/08/10 23:44:44;;;;;;;1.73;1.08;;;;;;;;;;10352667;28;20053;-83
2023/08/10 23:49:49;;;;;;;6.43;1.33;;;;;;;;;;10342595;28;20058;-84
2023/08/10 23:54:52;;;;;;;5.10;1.38;;;;;;;;;;10343514;28;20072;-83
2023/08/10 23:59:56;;;;;;;1.58;1.27;;;;;;;;;;10334920;28;20062;-84
